sensor_id;sensor_type;location;lat;lon;timestamp;P1;durP1;ratioP1;P2;durP2;ratioP2
37280;SDS011;23169;41.804;12.596;2023-07-31T00:00:24;10.85;;;4.93;;
37280;SDS011;23169;41.804;12.596;2023-07-31T00:02:56;13.75;;;4.97;;
37280;SDS011;23169;41.804;12.596;2023-07-31T00:05:26;13.55;;;5.53;;
37280;SDS011;23169;41.804;12.596;2023-07-31T00:07:55;9.50;;;4.60;;
37280;SDS011;23169;41.804;12.596;2023-07-31T00:10:24;13.13;;;5.30;;
37280;SDS011;23169;41.804;12.596;2023-07-31T00:12:53;16.65;;;5.03;;
37280;SDS011;23169;41.804;12.596;2023-07-31T00:15:22;12.80;;;4.72;;
37280;SDS011;23169;41.804;12.596;2023-07-31T00:17:51;12.82;;;5.13;;
37280;SDS011;23169;41.804;12.596;2023-07-31T00:20:20;8.80;;;4.53;;
37280;SDS011;23169;41.804;12.596;2023-07-31T00:22:49;16.67;;;5.38;;
37280;SDS011;23169;41.804;12.596;2023-07-31T00:25:19;13.20;;;4.95;;
37280;SDS011;23169;41.804;12.596;2023-07-31T00:27:48;10.65;;;5.10;;
37280;SDS011;23169;41.804;12.596;2023-07-31T00:30:17;11.93;;;4.78;;
37280;SDS011;23169;41.804;12.596;2023-07-31T00:32:46;18.25;;;5.57;;
37280;SDS011;23169;41.804;12.596;2023-07-31T00:35:15;10.70;;;4.80;;
37280;SDS011;23169;41.804;12.596;2023-07-31T00:37:44;10.65;;;4.95;;
37280;SDS011;23169;41.804;12.596;2023-07-31T00:40:13;14.63;;;4.70;;
37280;SDS011;23169;41.804;12.596;2023-07-31T00:42:43;15.80;;;4.90;;
37280;SDS011;23169;41.804;12.596;2023-07-31T00:45:12;13.40;;;5.50;;
37280;SDS011;23169;41.804;12.596;2023-07-31T00:47:43;17.67;;;5.30;;
37280;SDS011;23169;41.804;12.596;2023-07-31T00:50:12;12.18;;;5.43;;
37280;SDS011;23169;41.804;12.596;2023-07-31T00:52:44;17.48;;;6.15;;
37280;SDS011;23169;41.804;12.596;2023-07-31T00:55:13;16.63;;;6.60;;
37280;SDS011;23169;41.804;12.596;2023-07-31T00:57:45;15.98;;;6.72;;
37280;SDS011;23169;41.804;12.596;2023-07-31T01:00:14;16.00;;;6.88;;
37280;SDS011;23169;41.804;12.596;2023-07-31T01:02:44;21.52;;;7.60;;
37280;SDS011;23169;41.804;12.596;2023-07-31T01:05:13;17.95;;;7.53;;
37280;SDS011;23169;41.804;12.596;2023-07-31T01:07:56;21.35;;;7.70;;
37280;SDS011;23169;41.804;12.596;2023-07-31T01:10:38;17.80;;;7.10;;
37280;SDS011;23169;41.804;12.596;2023-07-31T01:13:14;17.92;;;7.97;;
37280;SDS011;23169;41.804;12.596;2023-07-31T01:15:44;20.80;;;8.45;;
37280;SDS011;23169;41.804;12.596;2023-07-31T01:18:13;21.45;;;8.88;;
37280;SDS011;23169;41.804;12.596;2023-07-31T01:20:43;20.27;;;8.43;;
37280;SDS011;23169;41.804;12.596;2023-07-31T01:26:00;21.20;;;9.15;;
37280;SDS011;23169;41.804;12.596;2023-07-31T01:31:44;23.02;;;8.32;;
37280;SDS011;23169;41.804;12.596;2023-07-31T01:34:17;18.42;;;7.72;;
37280;SDS011;23169;41.804;12.596;2023-07-31T01:36:47;20.65;;;7.47;;
37280;SDS011;23169;41.804;12.596;2023-07-31T01:39:16;16.35;;;7.05;;
37280;SDS011;23169;41.804;12.596;2023-07-31T01:41:46;16.30;;;6.97;;
37280;SDS011;23169;41.804;12.596;2023-07-31T01:44:15;20.33;;;7.32;;
37280;SDS011;23169;41.804;12.596;2023-07-31T01:46:44;18.63;;;7.88;;
37280;SDS011;23169;41.804;12.596;2023-07-31T01:49:13;22.60;;;7.53;;
37280;SDS011;23169;41.804;12.596;2023-07-31T01:51:46;19.23;;;7.53;;
37280;SDS011;23169;41.804;12.596;2023-07-31T01:54:15;22.23;;;6.53;;
37280;SDS011;23169;41.804;12.596;2023-07-31T01:56:46;16.15;;;6.80;;
37280;SDS011;23169;41.804;12.596;2023-07-31T01:59:16;17.02;;;6.85;;
37280;SDS011;23169;41.804;12.596;2023-07-31T02:01:45;19.00;;;7.05;;
37280;SDS011;23169;41.804;12.596;2023-07-31T02:04:14;16.95;;;6.97;;
37280;SDS011;23169;41.804;12.596;2023-07-31T02:06:43;20.08;;;6.53;;
37280;SDS011;23169;41.804;12.596;2023-07-31T02:09:12;17.80;;;6.93;;
37280;SDS011;23169;41.804;12.596;2023-07-31T02:11:43;18.48;;;6.70;;
37280;SDS011;23169;41.804;12.596;2023-07-31T02:14:12;16.95;;;6.70;;
37280;SDS011;23169;41.804;12.596;2023-07-31T02:16:44;20.77;;;6.45;;
37280;SDS011;23169;41.804;12.596;2023-07-31T02:19:13;19.65;;;7.10;;
37280;SDS011;23169;41.804;12.596;2023-07-31T02:21:42;16.52;;;6.82;;
37280;SDS011;23169;41.804;12.596;2023-07-31T02:24:11;19.35;;;7.05;;
37280;SDS011;23169;41.804;12.596;2023-07-31T02:26:39;19.58;;;7.63;;
37280;SDS011;23169;41.804;12.596;2023-07-31T02:29:09;18.55;;;7.00;;
37280;SDS011;23169;41.804;12.596;2023-07-31T02:31:39;16.52;;;7.07;;
37280;SDS011;23169;41.804;12.596;2023-07-31T02:34:08;17.73;;;6.90;;
37280;SDS011;23169;41.804;12.596;2023-07-31T02:36:39;19.30;;;6.93;;
37280;SDS011;23169;41.804;12.596;2023-07-31T02:39:08;18.98;;;7.38;;
37280;SDS011;23169;41.804;12.596;2023-07-31T02:41:39;17.35;;;6.85;;
37280;SDS011;23169;41.804;12.596;2023-07-31T02:44:08;20.83;;;8.15;;
37280;SDS011;23169;41.804;12.596;2023-07-31T02:46:41;16.25;;;6.70;;
37280;SDS011;23169;41.804;12.596;2023-07-31T02:49:09;17.85;;;7.28;;
37280;SDS011;23169;41.804;12.596;2023-07-31T02:51:38;25.15;;;7.70;;
37280;SDS011;23169;41.804;12.596;2023-07-31T02:54:07;20.13;;;7.03;;
37280;SDS011;23169;41.804;12.596;2023-07-31T02:56:36;17.50;;;6.93;;
37280;SDS011;23169;41.804;12.596;2023-07-31T02:59:05;20.13;;;6.90;;
37280;SDS011;23169;41.804;12.596;2023-07-31T03:01:34;19.58;;;6.93;;
37280;SDS011;23169;41.804;12.596;2023-07-31T03:04:03;17.27;;;6.30;;
37280;SDS011;23169;41.804;12.596;2023-07-31T03:06:33;16.98;;;7.07;;
37280;SDS011;23169;41.804;12.596;2023-07-31T03:09:01;17.30;;;6.55;;
37280;SDS011;23169;41.804;12.596;2023-07-31T03:11:38;21.13;;;7.03;;
37280;SDS011;23169;41.804;12.596;2023-07-31T03:14:06;18.45;;;6.75;;
37280;SDS011;23169;41.804;12.596;2023-07-31T03:16:35;15.68;;;7.25;;
37280;SDS011;23169;41.804;12.596;2023-07-31T03:19:04;19.65;;;7.00;;
37280;SDS011;23169;41.804;12.596;2023-07-31T03:21:33;18.75;;;6.25;;
37280;SDS011;23169;41.804;12.596;2023-07-31T03:24:02;17.88;;;6.60;;
37280;SDS011;23169;41.804;12.596;2023-07-31T03:26:32;14.68;;;6.32;;
37280;SDS011;23169;41.804;12.596;2023-07-31T03:29:01;18.83;;;7.47;;
37280;SDS011;23169;41.804;12.596;2023-07-31T03:31:30;20.58;;;6.90;;
37280;SDS011;23169;41.804;12.596;2023-07-31T03:34:01;16.30;;;6.57;;
37280;SDS011;23169;41.804;12.596;2023-07-31T03:36:31;20.25;;;7.22;;
37280;SDS011;23169;41.804;12.596;2023-07-31T03:39:00;16.63;;;7.38;;
37280;SDS011;23169;41.804;12.596;2023-07-31T03:41:29;20.77;;;7.63;;
37280;SDS011;23169;41.804;12.596;2023-07-31T03:43:58;20.38;;;7.28;;
37280;SDS011;23169;41.804;12.596;2023-07-31T03:46:27;18.70;;;7.47;;
37280;SDS011;23169;41.804;12.596;2023-07-31T03:48:56;20.40;;;7.22;;
37280;SDS011;23169;41.804;12.596;2023-07-31T03:51:24;17.98;;;7.20;;
37280;SDS011;23169;41.804;12.596;2023-07-31T03:53:53;18.83;;;7.00;;
37280;SDS011;23169;41.804;12.596;2023-07-31T03:56:22;21.60;;;7.93;;
37280;SDS011;23169;41.804;12.596;2023-07-31T03:58:50;23.55;;;7.35;;
37280;SDS011;23169;41.804;12.596;2023-07-31T04:01:20;18.60;;;6.78;;
37280;SDS011;23169;41.804;12.596;2023-07-31T04:03:49;15.35;;;7.15;;
37280;SDS011;23169;41.804;12.596;2023-07-31T04:06:21;19.08;;;7.13;;
37280;SDS011;23169;41.804;12.596;2023-07-31T04:08:50;17.80;;;7.00;;
37280;SDS011;23169;41.804;12.596;2023-07-31T04:11:18;18.58;;;7.10;;
37280;SDS011;23169;41.804;12.596;2023-07-31T04:13:47;17.80;;;7.55;;
37280;SDS011;23169;41.804;12.596;2023-07-31T04:16:16;19.98;;;8.48;;
37280;SDS011;23169;41.804;12.596;2023-07-31T04:18:45;22.33;;;8.40;;
37280;SDS011;23169;41.804;12.596;2023-07-31T04:21:13;23.45;;;9.15;;
37280;SDS011;23169;41.804;12.596;2023-07-31T04:23:44;23.05;;;8.65;;
37280;SDS011;23169;41.804;12.596;2023-07-31T04:26:13;19.27;;;8.25;;
37280;SDS011;23169;41.804;12.596;2023-07-31T04:28:45;21.95;;;9.00;;
37280;SDS011;23169;41.804;12.596;2023-07-31T04:31:14;25.70;;;9.43;;
37280;SDS011;23169;41.804;12.596;2023-07-31T04:33:45;26.42;;;11.07;;
37280;SDS011;23169;41.804;12.596;2023-07-31T04:36:14;27.50;;;10.63;;
37280;SDS011;23169;41.804;12.596;2023-07-31T04:38:46;22.20;;;10.20;;
37280;SDS011;23169;41.804;12.596;2023-07-31T04:41:16;26.95;;;10.43;;
37280;SDS011;23169;41.804;12.596;2023-07-31T04:43:45;23.23;;;9.30;;
37280;SDS011;23169;41.804;12.596;2023-07-31T04:46:14;24.13;;;9.65;;
37280;SDS011;23169;41.804;12.596;2023-07-31T04:48:44;22.33;;;9.43;;
37280;SDS011;23169;41.804;12.596;2023-07-31T04:51:12;22.83;;;8.98;;
37280;SDS011;23169;41.804;12.596;2023-07-31T04:53:42;37.80;;;12.07;;
37280;SDS011;23169;41.804;12.596;2023-07-31T04:56:11;31.50;;;11.23;;
37280;SDS011;23169;41.804;12.596;2023-07-31T04:58:40;26.27;;;10.70;;
37280;SDS011;23169;41.804;12.596;2023-07-31T05:01:08;22.17;;;9.50;;
37280;SDS011;23169;41.804;12.596;2023-07-31T05:03:41;25.15;;;10.90;;
37280;SDS011;23169;41.804;12.596;2023-07-31T05:06:12;21.95;;;9.27;;
37280;SDS011;23169;41.804;12.596;2023-07-31T05:08:44;24.42;;;10.00;;
37280;SDS011;23169;41.804;12.596;2023-07-31T05:11:13;25.80;;;9.90;;
37280;SDS011;23169;41.804;12.596;2023-07-31T05:13:46;23.75;;;8.68;;
37280;SDS011;23169;41.804;12.596;2023-07-31T05:16:15;21.17;;;8.82;;
37280;SDS011;23169;41.804;12.596;2023-07-31T05:18:44;21.60;;;8.60;;
37280;SDS011;23169;41.804;12.596;2023-07-31T05:21:12;20.85;;;8.93;;
37280;SDS011;23169;41.804;12.596;2023-07-31T05:23:42;21.42;;;8.50;;
37280;SDS011;23169;41.804;12.596;2023-07-31T05:26:11;23.85;;;8.95;;
37280;SDS011;23169;41.804;12.596;2023-07-31T05:28:40;31.45;;;9.40;;
37280;SDS011;23169;41.804;12.596;2023-07-31T05:31:09;24.90;;;8.90;;
37280;SDS011;23169;41.804;12.596;2023-07-31T05:33:40;26.42;;;9.05;;
37280;SDS011;23169;41.804;12.596;2023-07-31T05:36:09;21.35;;;7.90;;
37280;SDS011;23169;41.804;12.596;2023-07-31T05:38:39;23.30;;;8.60;;
37280;SDS011;23169;41.804;12.596;2023-07-31T05:41:07;25.70;;;9.10;;
37280;SDS011;23169;41.804;12.596;2023-07-31T05:43:38;18.95;;;8.50;;
37280;SDS011;23169;41.804;12.596;2023-07-31T05:46:07;21.58;;;8.50;;
37280;SDS011;23169;41.804;12.596;2023-07-31T05:48:37;26.55;;;9.32;;
37280;SDS011;23169;41.804;12.596;2023-07-31T05:51:06;20.77;;;7.40;;
37280;SDS011;23169;41.804;12.596;2023-07-31T05:53:35;20.73;;;7.95;;
37280;SDS011;23169;41.804;12.596;2023-07-31T05:56:08;20.88;;;7.57;;
37280;SDS011;23169;41.804;12.596;2023-07-31T05:58:38;13.98;;;6.85;;
37280;SDS011;23169;41.804;12.596;2023-07-31T06:01:07;21.30;;;8.13;;
37280;SDS011;23169;41.804;12.596;2023-07-31T06:03:36;19.25;;;7.78;;
37280;SDS011;23169;41.804;12.596;2023-07-31T06:06:05;15.25;;;6.72;;
37280;SDS011;23169;41.804;12.596;2023-07-31T06:08:34;17.60;;;7.28;;
37280;SDS011;23169;41.804;12.596;2023-07-31T06:11:03;23.80;;;7.90;;
37280;SDS011;23169;41.804;12.596;2023-07-31T06:13:33;21.17;;;7.65;;
37280;SDS011;23169;41.804;12.596;2023-07-31T06:16:02;22.65;;;7.50;;
37280;SDS011;23169;41.804;12.596;2023-07-31T06:18:35;22.88;;;8.02;;
37280;SDS011;23169;41.804;12.596;2023-07-31T06:21:03;17.58;;;7.18;;
37280;SDS011;23169;41.804;12.596;2023-07-31T06:23:33;17.50;;;7.28;;
37280;SDS011;23169;41.804;12.596;2023-07-31T06:26:04;17.35;;;7.32;;
37280;SDS011;23169;41.804;12.596;2023-07-31T06:28:34;15.30;;;6.93;;
37280;SDS011;23169;41.804;12.596;2023-07-31T06:31:03;17.40;;;7.18;;
37280;SDS011;23169;41.804;12.596;2023-07-31T06:33:32;15.73;;;6.75;;
37280;SDS011;23169;41.804;12.596;2023-07-31T06:36:00;17.05;;;6.60;;
37280;SDS011;23169;41.804;12.596;2023-07-31T06:38:30;16.83;;;6.18;;
37280;SDS011;23169;41.804;12.596;2023-07-31T06:40:59;19.38;;;7.10;;
37280;SDS011;23169;41.804;12.596;2023-07-31T06:43:30;18.08;;;6.43;;
37280;SDS011;23169;41.804;12.596;2023-07-31T06:46:04;19.15;;;6.45;;
37280;SDS011;23169;41.804;12.596;2023-07-31T06:48:36;19.67;;;8.05;;
37280;SDS011;23169;41.804;12.596;2023-07-31T06:51:08;17.25;;;6.53;;
37280;SDS011;23169;41.804;12.596;2023-07-31T06:53:37;16.30;;;5.90;;
37280;SDS011;23169;41.804;12.596;2023-07-31T06:56:07;13.13;;;6.20;;
37280;SDS011;23169;41.804;12.596;2023-07-31T06:58:37;14.07;;;5.20;;
37280;SDS011;23169;41.804;12.596;2023-07-31T07:01:06;12.95;;;5.18;;
37280;SDS011;23169;41.804;12.596;2023-07-31T07:03:35;13.70;;;5.40;;
37280;SDS011;23169;41.804;12.596;2023-07-31T07:06:04;19.45;;;5.35;;
37280;SDS011;23169;41.804;12.596;2023-07-31T07:08:33;12.60;;;4.70;;
37280;SDS011;23169;41.804;12.596;2023-07-31T07:11:02;9.30;;;4.65;;
37280;SDS011;23169;41.804;12.596;2023-07-31T07:13:31;12.07;;;4.45;;
37280;SDS011;23169;41.804;12.596;2023-07-31T07:16:00;11.40;;;4.78;;
37280;SDS011;23169;41.804;12.596;2023-07-31T07:18:30;10.20;;;5.30;;
37280;SDS011;23169;41.804;12.596;2023-07-31T07:20:58;10.85;;;4.38;;
37280;SDS011;23169;41.804;12.596;2023-07-31T07:23:31;9.20;;;4.25;;
37280;SDS011;23169;41.804;12.596;2023-07-31T07:25:59;8.32;;;4.25;;
37280;SDS011;23169;41.804;12.596;2023-07-31T07:28:29;9.43;;;4.65;;
37280;SDS011;23169;41.804;12.596;2023-07-31T07:30:58;11.25;;;4.40;;
37280;SDS011;23169;41.804;12.596;2023-07-31T07:33:30;10.65;;;4.22;;
37280;SDS011;23169;41.804;12.596;2023-07-31T07:36:00;13.75;;;4.35;;
37280;SDS011;23169;41.804;12.596;2023-07-31T07:38:30;10.05;;;4.93;;
37280;SDS011;23169;41.804;12.596;2023-07-31T07:40:59;11.50;;;4.40;;
37280;SDS011;23169;41.804;12.596;2023-07-31T07:43:30;11.95;;;4.85;;
37280;SDS011;23169;41.804;12.596;2023-07-31T07:45:59;10.05;;;4.00;;
37280;SDS011;23169;41.804;12.596;2023-07-31T07:48:29;20.05;;;4.65;;
37280;SDS011;23169;41.804;12.596;2023-07-31T07:50:58;13.73;;;4.72;;
37280;SDS011;23169;41.804;12.596;2023-07-31T07:53:28;11.57;;;4.68;;
37280;SDS011;23169;41.804;12.596;2023-07-31T07:55:56;8.27;;;4.25;;
37280;SDS011;23169;41.804;12.596;2023-07-31T07:58:26;15.82;;;4.70;;
37280;SDS011;23169;41.804;12.596;2023-07-31T08:00:55;9.00;;;4.25;;
37280;SDS011;23169;41.804;12.596;2023-07-31T08:03:24;8.73;;;4.25;;
37280;SDS011;23169;41.804;12.596;2023-07-31T08:05:59;12.30;;;4.40;;
37280;SDS011;23169;41.804;12.596;2023-07-31T08:08:31;12.57;;;3.88;;
37280;SDS011;23169;41.804;12.596;2023-07-31T08:11:01;11.30;;;4.53;;
37280;SDS011;23169;41.804;12.596;2023-07-31T08:13:31;8.32;;;3.78;;
37280;SDS011;23169;41.804;12.596;2023-07-31T08:15:59;9.68;;;3.95;;
37280;SDS011;23169;41.804;12.596;2023-07-31T08:18:30;13.30;;;4.13;;
37280;SDS011;23169;41.804;12.596;2023-07-31T08:21:03;7.28;;;3.88;;
37280;SDS011;23169;41.804;12.596;2023-07-31T08:23:33;5.50;;;3.38;;
37280;SDS011;23169;41.804;12.596;2023-07-31T08:26:03;9.88;;;4.03;;
37280;SDS011;23169;41.804;12.596;2023-07-31T08:28:33;15.23;;;4.00;;
37280;SDS011;23169;41.804;12.596;2023-07-31T08:31:04;6.78;;;3.55;;
37280;SDS011;23169;41.804;12.596;2023-07-31T08:33:33;10.55;;;3.85;;
37280;SDS011;23169;41.804;12.596;2023-07-31T08:36:02;6.63;;;3.05;;
37280;SDS011;23169;41.804;12.596;2023-07-31T08:38:32;11.27;;;4.10;;
37280;SDS011;23169;41.804;12.596;2023-07-31T08:41:02;8.30;;;3.60;;
37280;SDS011;23169;41.804;12.596;2023-07-31T08:43:35;17.13;;;4.65;;
37280;SDS011;23169;41.804;12.596;2023-07-31T08:46:06;8.85;;;3.53;;
37280;SDS011;23169;41.804;12.596;2023-07-31T08:48:40;7.75;;;3.58;;
37280;SDS011;23169;41.804;12.596;2023-07-31T08:51:13;6.68;;;3.45;;
37280;SDS011;23169;41.804;12.596;2023-07-31T08:53:46;10.40;;;4.00;;
37280;SDS011;23169;41.804;12.596;2023-07-31T08:56:16;7.78;;;3.67;;
37280;SDS011;23169;41.804;12.596;2023-07-31T08:58:46;6.57;;;3.70;;
37280;SDS011;23169;41.804;12.596;2023-07-31T09:01:15;8.57;;;4.18;;
37280;SDS011;23169;41.804;12.596;2023-07-31T09:03:45;7.72;;;3.75;;
37280;SDS011;23169;41.804;12.596;2023-07-31T09:06:15;8.52;;;3.50;;
37280;SDS011;23169;41.804;12.596;2023-07-31T09:08:48;15.60;;;4.30;;
37280;SDS011;23169;41.804;12.596;2023-07-31T09:11:18;12.80;;;4.85;;
37280;SDS011;23169;41.804;12.596;2023-07-31T09:13:47;16.40;;;3.78;;
37280;SDS011;23169;41.804;12.596;2023-07-31T09:16:17;9.48;;;4.22;;
37280;SDS011;23169;41.804;12.596;2023-07-31T09:18:53;8.55;;;3.80;;
37280;SDS011;23169;41.804;12.596;2023-07-31T09:21:25;9.00;;;3.47;;
37280;SDS011;23169;41.804;12.596;2023-07-31T09:23:55;6.65;;;3.50;;
37280;SDS011;23169;41.804;12.596;2023-07-31T09:26:35;5.35;;;3.33;;
37280;SDS011;23169;41.804;12.596;2023-07-31T09:29:05;12.05;;;4.28;;
37280;SDS011;23169;41.804;12.596;2023-07-31T09:31:46;9.73;;;4.00;;
37280;SDS011;23169;41.804;12.596;2023-07-31T09:34:15;9.85;;;3.30;;
37280;SDS011;23169;41.804;12.596;2023-07-31T09:36:49;6.13;;;3.88;;
37280;SDS011;23169;41.804;12.596;2023-07-31T09:39:20;4.85;;;3.70;;
37280;SDS011;23169;41.804;12.596;2023-07-31T09:41:54;6.57;;;3.25;;
37280;SDS011;23169;41.804;12.596;2023-07-31T09:44:38;7.45;;;3.40;;
37280;SDS011;23169;41.804;12.596;2023-07-31T09:47:21;7.50;;;3.83;;
37280;SDS011;23169;41.804;12.596;2023-07-31T09:49:52;7.68;;;3.17;;
37280;SDS011;23169;41.804;12.596;2023-07-31T09:52:21;7.50;;;3.45;;
37280;SDS011;23169;41.804;12.596;2023-07-31T09:54:50;6.88;;;3.40;;
37280;SDS011;23169;41.804;12.596;2023-07-31T09:57:19;4.40;;;3.03;;
37280;SDS011;23169;41.804;12.596;2023-07-31T09:59:51;11.00;;;3.80;;
37280;SDS011;23169;41.804;12.596;2023-07-31T10:02:22;7.75;;;3.30;;
37280;SDS011;23169;41.804;12.596;2023-07-31T10:04:55;8.68;;;3.80;;
37280;SDS011;23169;41.804;12.596;2023-07-31T10:07:29;7.00;;;3.63;;
37280;SDS011;23169;41.804;12.596;2023-07-31T10:10:00;10.73;;;3.83;;
37280;SDS011;23169;41.804;12.596;2023-07-31T10:12:30;6.57;;;3.47;;
37280;SDS011;23169;41.804;12.596;2023-07-31T10:15:02;8.13;;;3.33;;
37280;SDS011;23169;41.804;12.596;2023-07-31T10:17:32;9.57;;;4.05;;
37280;SDS011;23169;41.804;12.596;2023-07-31T10:20:03;6.78;;;3.65;;
37280;SDS011;23169;41.804;12.596;2023-07-31T10:22:35;10.35;;;3.63;;
37280;SDS011;23169;41.804;12.596;2023-07-31T10:25:04;8.88;;;3.67;;
37280;SDS011;23169;41.804;12.596;2023-07-31T10:27:38;8.13;;;3.90;;
37280;SDS011;23169;41.804;12.596;2023-07-31T10:30:17;11.68;;;3.78;;
37280;SDS011;23169;41.804;12.596;2023-07-31T10:32:48;10.77;;;3.47;;
37280;SDS011;23169;41.804;12.596;2023-07-31T10:35:19;7.68;;;3.83;;
37280;SDS011;23169;41.804;12.596;2023-07-31T10:37:51;8.73;;;3.95;;
37280;SDS011;23169;41.804;12.596;2023-07-31T10:40:24;7.93;;;3.70;;
37280;SDS011;23169;41.804;12.596;2023-07-31T10:42:57;5.28;;;3.53;;
37280;SDS011;23169;41.804;12.596;2023-07-31T10:45:33;6.55;;;3.65;;
37280;SDS011;23169;41.804;12.596;2023-07-31T10:48:07;8.90;;;3.50;;
37280;SDS011;23169;41.804;12.596;2023-07-31T10:50:46;7.78;;;3.85;;
37280;SDS011;23169;41.804;12.596;2023-07-31T10:55:53;6.70;;;3.28;;
37280;SDS011;23169;41.804;12.596;2023-07-31T10:58:31;6.90;;;3.47;;
37280;SDS011;23169;41.804;12.596;2023-07-31T11:01:03;7.72;;;3.70;;
37280;SDS011;23169;41.804;12.596;2023-07-31T11:06:14;5.82;;;3.28;;
37280;SDS011;23169;41.804;12.596;2023-07-31T11:08:50;5.97;;;3.42;;
37280;SDS011;23169;41.804;12.596;2023-07-31T11:11:19;8.02;;;4.07;;
37280;SDS011;23169;41.804;12.596;2023-07-31T11:13:53;4.97;;;3.50;;
37280;SDS011;23169;41.804;12.596;2023-07-31T11:16:22;8.38;;;3.70;;
37280;SDS011;23169;41.804;12.596;2023-07-31T11:18:52;6.75;;;3.50;;
37280;SDS011;23169;41.804;12.596;2023-07-31T11:21:26;10.73;;;3.80;;
37280;SDS011;23169;41.804;12.596;2023-07-31T11:23:56;9.40;;;3.30;;
37280;SDS011;23169;41.804;12.596;2023-07-31T11:26:25;8.60;;;3.72;;
37280;SDS011;23169;41.804;12.596;2023-07-31T11:28:58;7.03;;;3.50;;
37280;SDS011;23169;41.804;12.596;2023-07-31T11:31:27;4.72;;;3.60;;
37280;SDS011;23169;41.804;12.596;2023-07-31T11:34:05;6.55;;;3.15;;
37280;SDS011;23169;41.804;12.596;2023-07-31T11:36:34;5.85;;;3.47;;
37280;SDS011;23169;41.804;12.596;2023-07-31T11:39:10;7.72;;;3.58;;
37280;SDS011;23169;41.804;12.596;2023-07-31T11:41:40;7.10;;;3.88;;
37280;SDS011;23169;41.804;12.596;2023-07-31T11:44:09;6.93;;;3.85;;
37280;SDS011;23169;41.804;12.596;2023-07-31T11:46:39;6.15;;;3.88;;
37280;SDS011;23169;41.804;12.596;2023-07-31T11:49:07;9.18;;;4.10;;
37280;SDS011;23169;41.804;12.596;2023-07-31T11:51:37;11.35;;;3.63;;
37280;SDS011;23169;41.804;12.596;2023-07-31T11:54:06;5.72;;;3.47;;
37280;SDS011;23169;41.804;12.596;2023-07-31T11:56:36;10.05;;;4.00;;
37280;SDS011;23169;41.804;12.596;2023-07-31T11:59:05;7.63;;;4.40;;
37280;SDS011;23169;41.804;12.596;2023-07-31T12:01:36;10.73;;;4.43;;
37280;SDS011;23169;41.804;12.596;2023-07-31T12:04:05;8.75;;;4.70;;
37280;SDS011;23169;41.804;12.596;2023-07-31T12:06:37;13.30;;;5.03;;
37280;SDS011;23169;41.804;12.596;2023-07-31T12:09:06;11.40;;;4.85;;
37280;SDS011;23169;41.804;12.596;2023-07-31T12:11:43;16.08;;;4.80;;
37280;SDS011;23169;41.804;12.596;2023-07-31T12:14:25;13.87;;;4.87;;
37280;SDS011;23169;41.804;12.596;2023-07-31T12:16:58;12.73;;;4.70;;
37280;SDS011;23169;41.804;12.596;2023-07-31T12:19:29;14.07;;;4.78;;
37280;SDS011;23169;41.804;12.596;2023-07-31T12:22:02;12.48;;;5.07;;
37280;SDS011;23169;41.804;12.596;2023-07-31T12:24:41;10.27;;;4.40;;
37280;SDS011;23169;41.804;12.596;2023-07-31T12:27:13;12.23;;;4.70;;
37280;SDS011;23169;41.804;12.596;2023-07-31T12:29:43;15.68;;;4.78;;
37280;SDS011;23169;41.804;12.596;2023-07-31T12:32:20;13.73;;;4.88;;
37280;SDS011;23169;41.804;12.596;2023-07-31T12:37:18;10.73;;;4.60;;
37280;SDS011;23169;41.804;12.596;2023-07-31T12:39:48;14.52;;;4.95;;
37280;SDS011;23169;41.804;12.596;2023-07-31T12:42:17;7.97;;;4.50;;
37280;SDS011;23169;41.804;12.596;2023-07-31T12:44:47;11.45;;;4.80;;
37280;SDS011;23169;41.804;12.596;2023-07-31T12:47:16;15.70;;;4.70;;
37280;SDS011;23169;41.804;12.596;2023-07-31T12:49:45;13.90;;;4.68;;
37280;SDS011;23169;41.804;12.596;2023-07-31T12:52:14;15.73;;;5.53;;
37280;SDS011;23169;41.804;12.596;2023-07-31T12:54:42;10.15;;;4.50;;
37280;SDS011;23169;41.804;12.596;2023-07-31T12:57:13;10.45;;;4.28;;
37280;SDS011;23169;41.804;12.596;2023-07-31T12:59:42;10.93;;;5.05;;
37280;SDS011;23169;41.804;12.596;2023-07-31T13:02:14;16.58;;;4.82;;
37280;SDS011;23169;41.804;12.596;2023-07-31T13:04:44;11.35;;;4.70;;
37280;SDS011;23169;41.804;12.596;2023-07-31T13:07:13;15.43;;;5.35;;
37280;SDS011;23169;41.804;12.596;2023-07-31T13:09:43;13.93;;;4.88;;
37280;SDS011;23169;41.804;12.596;2023-07-31T13:12:13;12.27;;;4.88;;
37280;SDS011;23169;41.804;12.596;2023-07-31T13:14:42;11.93;;;4.68;;
37280;SDS011;23169;41.804;12.596;2023-07-31T13:17:11;10.98;;;4.35;;
37280;SDS011;23169;41.804;12.596;2023-07-31T13:19:40;14.10;;;4.55;;
37280;SDS011;23169;41.804;12.596;2023-07-31T13:22:10;9.02;;;4.65;;
37280;SDS011;23169;41.804;12.596;2023-07-31T13:24:39;8.90;;;3.90;;
37280;SDS011;23169;41.804;12.596;2023-07-31T13:27:10;12.65;;;4.78;;
37280;SDS011;23169;41.804;12.596;2023-07-31T13:29:39;13.10;;;4.55;;
37280;SDS011;23169;41.804;12.596;2023-07-31T13:32:08;11.32;;;4.40;;
37280;SDS011;23169;41.804;12.596;2023-07-31T13:34:37;11.75;;;4.25;;
37280;SDS011;23169;41.804;12.596;2023-07-31T13:37:06;8.30;;;4.10;;
37280;SDS011;23169;41.804;12.596;2023-07-31T13:39:35;12.95;;;5.28;;
37280;SDS011;23169;41.804;12.596;2023-07-31T13:42:04;11.00;;;4.53;;
37280;SDS011;23169;41.804;12.596;2023-07-31T13:44:38;14.00;;;4.15;;
37280;SDS011;23169;41.804;12.596;2023-07-31T13:47:11;14.13;;;4.90;;
37280;SDS011;23169;41.804;12.596;2023-07-31T13:49:41;14.15;;;4.07;;
37280;SDS011;23169;41.804;12.596;2023-07-31T13:52:11;11.13;;;4.30;;
37280;SDS011;23169;41.804;12.596;2023-07-31T13:54:39;9.40;;;4.65;;
37280;SDS011;23169;41.804;12.596;2023-07-31T13:57:10;12.60;;;4.28;;
37280;SDS011;23169;41.804;12.596;2023-07-31T13:59:40;12.50;;;4.30;;
37280;SDS011;23169;41.804;12.596;2023-07-31T14:02:09;14.15;;;4.78;;
37280;SDS011;23169;41.804;12.596;2023-07-31T14:04:38;10.90;;;4.50;;
37280;SDS011;23169;41.804;12.596;2023-07-31T14:07:07;11.85;;;4.68;;
37280;SDS011;23169;41.804;12.596;2023-07-31T14:09:36;13.52;;;4.30;;
37280;SDS011;23169;41.804;12.596;2023-07-31T14:12:05;10.15;;;4.35;;
37280;SDS011;23169;41.804;12.596;2023-07-31T14:14:34;8.38;;;4.07;;
37280;SDS011;23169;41.804;12.596;2023-07-31T14:17:03;14.32;;;5.20;;
37280;SDS011;23169;41.804;12.596;2023-07-31T14:19:36;15.13;;;4.03;;
37280;SDS011;23169;41.804;12.596;2023-07-31T14:22:05;14.38;;;4.60;;
37280;SDS011;23169;41.804;12.596;2023-07-31T14:24:34;11.05;;;4.53;;
37280;SDS011;23169;41.804;12.596;2023-07-31T14:27:03;11.88;;;4.35;;
37280;SDS011;23169;41.804;12.596;2023-07-31T14:29:32;11.30;;;4.18;;
37280;SDS011;23169;41.804;12.596;2023-07-31T14:32:01;11.77;;;4.47;;
37280;SDS011;23169;41.804;12.596;2023-07-31T14:34:30;10.18;;;4.40;;
37280;SDS011;23169;41.804;12.596;2023-07-31T14:36:59;10.68;;;4.38;;
37280;SDS011;23169;41.804;12.596;2023-07-31T14:39:29;12.00;;;4.47;;
37280;SDS011;23169;41.804;12.596;2023-07-31T14:41:57;10.60;;;4.50;;
37280;SDS011;23169;41.804;12.596;2023-07-31T14:44:26;10.48;;;4.00;;
37280;SDS011;23169;41.804;12.596;2023-07-31T14:46:56;10.55;;;4.15;;
37280;SDS011;23169;41.804;12.596;2023-07-31T14:49:25;13.18;;;4.30;;
37280;SDS011;23169;41.804;12.596;2023-07-31T14:51:55;12.38;;;4.15;;
37280;SDS011;23169;41.804;12.596;2023-07-31T14:54:24;11.40;;;4.53;;